Time;durP1;ratioP1;P1;durP2;ratioP2;P2;SDS_P1;SDS_P2;PMS_P1;PMS_P2;Temp;Humidity;BMP_temperature;BMP_pressure;BME280_temperature;BME280_humidity;BME280_pressure;Samples;Min_cycle;Max_cycle;Signal;HPM_P1;HPM_P2
2023/03/22 00:03:10;;;;;;;5.63;3.00;;;;;;;;;;10568148;27;20118;-75
2023/03/22 00:08:13;;;;;;;7.60;2.95;;;;;;;;;;10558821;27;20065;-76
2023/03/22 00:13:18;;;;;;;9.82;4.20;;;;;;;;;;10562885;27;20042;-75
2023/03/22 00:18:21;;;;;;;9.20;4.55;;;;;;;;;;10564626;27;20027;-76
2023/03/22 00:23:25;;;;;;;6.03;3.25;;;;;;;;;;10549322;27;20528;-78
2023/03/22 00:28:29;;;;;;;10.53;4.87;;;;;;;;;;10546112;27;20038;-78
2023/03/22 00:33:35;;;;;;;8.52;4.68;;;;;;;;;;10558221;27;20531;-78
2023/03/22 00:38:38;;;;;;;11.95;4.70;;;;;;;;;;10564353;27;20136;-78
2023/03/22 00:43:50;;;;;;;9.40;4.15;;;;;;;;;;10558562;28;20441;-79
2023/03/22 00:49:01;;;;;;;9.70;3.95;;;;;;;;;;10537847;28;20032;-76
2023/03/22 00:54:06;;;;;;;8.10;4.10;;;;;;;;;;10560016;27;20149;-75
2023/03/22 00:59:12;;;;;;;7.18;3.50;;;;;;;;;;10540771;27;20038;-77
2023/03/22 01:04:25;;;;;;;8.80;4.47;;;;;;;;;;10539303;28;20040;-78
2023/03/22 01:09:29;;;;;;;7.15;3.03;;;;;;;;;;10557913;27;20085;-78
2023/03/22 01:14:34;;;;;;;4.88;2.35;;;;;;;;;;10561944;27;20040;-78
2023/03/22 01:19:38;;;;;;;8.80;4.30;;;;;;;;;;10549835;28;20039;-76
2023/03/22 01:24:40;;;;;;;6.60;3.13;;;;;;;;;;10536986;28;20047;-76
2023/03/22 01:29:45;;;;;;;7.67;3.97;;;;;;;;;;10528564;28;20035;-76
2023/03/22 01:34:49;;;;;;;7.55;3.70;;;;;;;;;;10547290;27;20046;-77
2023/03/22 01:39:52;;;;;;;;;;;;;;;;;;10550202;27;20042;-78
2023/03/22 01:45:14;;;;;;;3.92;2.08;;;;;;;;;;10560333;27;19993;-78
2023/03/22 01:50:20;;;;;;;8.43;3.67;;;;;;;;;;10571135;28;20396;-78
2023/03/22 01:55:24;;;;;;;9.77;3.72;;;;;;;;;;10572225;28;20093;-78
2023/03/22 02:00:34;;;;;;;7.40;2.72;;;;;;;;;;10567129;27;20071;-77
2023/03/22 02:05:41;;;;;;;5.20;2.67;;;;;;;;;;10541570;27;20275;-78
2023/03/22 02:10:45;;;;;;;8.10;3.28;;;;;;;;;;10567880;27;20353;-77
2023/03/22 02:15:56;;;;;;;6.93;3.10;;;;;;;;;;10529797;27;20055;-76
2023/03/22 02:21:16;;;;;;;5.82;2.65;;;;;;;;;;10577477;27;20062;-75
2023/03/22 02:26:38;;;;;;;5.68;2.85;;;;;;;;;;10563731;27;20071;-76
2023/03/22 02:31:50;;;;;;;9.27;3.72;;;;;;;;;;10568812;27;20047;-76
2023/03/22 02:37:08;;;;;;;6.88;3.00;;;;;;;;;;10564363;27;20370;-77
2023/03/22 02:42:22;;;;;;;10.52;4.30;;;;;;;;;;10560358;27;20055;-76
2023/03/22 02:47:33;;;;;;;8.55;4.15;;;;;;;;;;10559867;27;20054;-76
2023/03/22 02:52:39;;;;;;;10.63;4.53;;;;;;;;;;10565190;27;20512;-77
2023/03/22 02:57:45;;;;;;;8.20;4.05;;;;;;;;;;10560328;27;20044;-77
2023/03/22 03:02:50;;;;;;;10.77;4.30;;;;;;;;;;10565989;27;20505;-77
2023/03/22 03:07:55;;;;;;;7.40;4.03;;;;;;;;;;10570027;27;20100;-77
2023/03/22 03:13:03;;;;;;;11.48;4.22;;;;;;;;;;10532815;27;20043;-77
2023/03/22 03:18:19;;;;;;;8.07;4.40;;;;;;;;;;10541387;27;20040;-77
2023/03/22 03:23:27;;;;;;;8.60;4.13;;;;;;;;;;10572009;27;20050;-77
2023/03/22 03:28:39;;;;;;;8.48;4.10;;;;;;;;;;10564738;27;20039;-76
2023/03/22 03:33:45;;;;;;;8.25;3.80;;;;;;;;;;10538556;27;20048;-76
2023/03/22 03:38:51;;;;;;;10.73;6.10;;;;;;;;;;10539887;27;20472;-77
2023/03/22 03:43:57;;;;;;;9.52;4.28;;;;;;;;;;10560876;27;20059;-76
2023/03/22 03:49:02;;;;;;;10.45;5.43;;;;;;;;;;10521395;27;20060;-76
2023/03/22 03:54:05;;;;;;;;;;;;;;;;;;10553378;27;20051;-76
2023/03/22 03:59:09;;;;;;;7.68;4.00;;;;;;;;;;10559056;27;20244;-77
2023/03/22 04:04:12;;;;;;;19.20;10.13;;;;;;;;;;10563757;27;20161;-77
2023/03/22 04:09:17;;;;;;;8.25;4.28;;;;;;;;;;10557534;27;20706;-78
2023/03/22 04:14:23;;;;;;;9.05;4.05;;;;;;;;;;10557042;27;20043;-77
2023/03/22 04:19:27;;;;;;;8.60;3.88;;;;;;;;;;10557651;27;20040;-77
2023/03/22 04:24:30;;;;;;;7.18;3.72;;;;;;;;;;10558744;27;20044;-77
2023/03/22 04:29:35;;;;;;;9.40;3.80;;;;;;;;;;10561152;27;20116;-78
2023/03/22 04:34:38;;;;;;;7.25;3.45;;;;;;;;;;10562768;27;20032;-77
2023/03/22 04:39:41;;;;;;;8.20;3.85;;;;;;;;;;10562127;27;20146;-77
2023/03/22 04:44:46;;;;;;;10.45;4.20;;;;;;;;;;10566275;27;20393;-77
2023/03/22 04:49:49;;;;;;;11.00;4.07;;;;;;;;;;10558102;27;20049;-77
2023/03/22 04:54:52;;;;;;;2.90;1.33;;;;;;;;;;10562819;27;20047;-76
2023/03/22 04:59:56;;;;;;;5.07;3.42;;;;;;;;;;10570185;27;20852;-76
2023/03/22 05:04:59;;;;;;;9.43;3.35;;;;;;;;;;10568711;27;20464;-75
2023/03/22 05:10:02;;;;;;;7.97;3.60;;;;;;;;;;10562141;27;20036;-75
2023/03/22 05:15:08;;;;;;;9.77;3.58;;;;;;;;;;10566042;27;20074;-74
2023/03/22 05:20:12;;;;;;;6.72;3.70;;;;;;;;;;10572012;27;20052;-74
2023/03/22 05:25:25;;;;;;;2.35;1.27;;;;;;;;;;10535584;28;20045;-75
2023/03/22 05:30:36;;;;;;;4.35;1.17;;;;;;;;;;10560912;28;20039;-76
2023/03/22 05:35:42;;;;;;;3.72;2.17;;;;;;;;;;10550707;28;20055;-76
2023/03/22 05:40:55;;;;;;;4.93;2.40;;;;;;;;;;10558805;28;20047;-76
2023/03/22 05:46:00;;;;;;;7.60;2.42;;;;;;;;;;10556160;28;20308;-76
2023/03/22 05:51:06;;;;;;;5.60;2.95;;;;;;;;;;10557548;28;20043;-75
2023/03/22 05:56:10;;;;;;;7.55;2.88;;;;;;;;;;10557369;28;20115;-77
2023/03/22 06:01:15;;;;;;;8.02;3.13;;;;;;;;;;10552787;28;20027;-77
2023/03/22 06:06:23;;;;;;;6.13;2.75;;;;;;;;;;10563094;28;20055;-77
2023/03/22 06:11:32;;;;;;;7.60;2.75;;;;;;;;;;10554960;28;20070;-77
2023/03/22 06:16:37;;;;;;;6.95;2.28;;;;;;;;;;10559099;28;20248;-76
2023/03/22 06:21:41;;;;;;;4.90;2.58;;;;;;;;;;10564081;27;20032;-77
2023/03/22 06:26:44;;;;;;;;;;;;;;;;;;10563742;27;20039;-78
2023/03/22 06:31:48;;;;;;;4.32;1.98;;;;;;;;;;10562282;27;19935;-78
2023/03/22 06:36:52;;;;;;;;;;;;;;;;;;10562806;27;20031;-78
2023/03/22 06:41:55;;;;;;;4.97;1.75;;;;;;;;;;10565214;27;19920;-77
2023/03/22 06:47:10;;;;;;;6.38;2.08;;;;;;;;;;10560698;27;20047;-78
2023/03/22 06:52:14;;;;;;;4.68;2.65;;;;;;;;;;10563030;27;20130;-78
2023/03/22 06:57:17;;;;;;;10.00;3.70;;;;;;;;;;10544780;27;20449;-77
2023/03/22 07:02:35;;;;;;;22.67;10.60;;;;;;;;;;10558015;27;20044;-77
2023/03/22 07:07:38;;;;;;;12.88;9.45;;;;;;;;;;10572299;27;20035;-78
2023/03/22 07:12:42;;;;;;;6.13;3.30;;;;;;;;;;10530543;27;20069;-78
2023/03/22 07:17:47;;;;;;;7.78;2.72;;;;;;;;;;10555223;27;20040;-78
2023/03/22 07:22:51;;;;;;;6.68;2.88;;;;;;;;;;10558137;27;20032;-78
2023/03/22 07:27:55;;;;;;;4.88;2.50;;;;;;;;;;10561821;27;20413;-78
2023/03/22 07:33:01;;;;;;;4.57;2.30;;;;;;;;;;10564623;27;20138;-77
2023/03/22 07:38:05;;;;;;;4.80;2.35;;;;;;;;;;10544319;27;20047;-79
2023/03/22 07:43:10;;;;;;;4.95;2.67;;;;;;;;;;10547040;27;20173;-76
2023/03/22 07:48:27;;;;;;;4.70;2.38;;;;;;;;;;10549345;27;20054;-77
2023/03/22 07:53:30;;;;;;;2.63;1.85;;;;;;;;;;10558242;27;20047;-78
2023/03/22 07:58:33;;;;;;;5.82;2.80;;;;;;;;;;10557763;27;20500;-78
2023/03/22 08:03:38;;;;;;;4.30;2.10;;;;;;;;;;10561492;27;20436;-78
2023/03/22 08:08:40;;;;;;;6.32;2.80;;;;;;;;;;10560086;27;20040;-78
2023/03/22 08:13:44;;;;;;;3.40;2.63;;;;;;;;;;10530883;28;20055;-77
2023/03/22 08:18:49;;;;;;;5.72;3.47;;;;;;;;;;10540146;27;20032;-79
2023/03/22 08:23:53;;;;;;;5.25;3.13;;;;;;;;;;10564383;27;20530;-79
2023/03/22 08:28:57;;;;;;;5.50;3.78;;;;;;;;;;10558615;27;20032;-79
2023/03/22 08:34:02;;;;;;;5.25;3.33;;;;;;;;;;10554559;27;20408;-79
2023/03/22 08:39:07;;;;;;;7.68;4.25;;;;;;;;;;10556409;27;20503;-80
2023/03/22 08:44:12;;;;;;;6.35;4.15;;;;;;;;;;10527661;28;20039;-78
2023/03/22 08:49:16;;;;;;;5.03;3.88;;;;;;;;;;10539179;27;20418;-79
2023/03/22 08:54:20;;;;;;;5.20;3.47;;;;;;;;;;10553143;28;20040;-79
2023/03/22 08:59:24;;;;;;;7.65;4.30;;;;;;;;;;10549915;27;20426;-79
2023/03/22 09:04:29;;;;;;;8.18;4.07;;;;;;;;;;10550895;28;20039;-79
2023/03/22 09:09:33;;;;;;;5.20;4.28;;;;;;;;;;10557703;27;20517;-78
2023/03/22 09:14:36;;;;;;;6.22;4.40;;;;;;;;;;10552052;27;20538;-78
2023/03/22 09:19:40;;;;;;;6.47;4.00;;;;;;;;;;10554763;28;20430;-79
2023/03/22 09:24:44;;;;;;;;;;;;;;;;;;10556010;28;20036;-78
2023/03/22 09:29:48;;;;;;;5.25;3.95;;;;;;;;;;10555685;28;19919;-78
2023/03/22 09:34:55;;;;;;;5.55;3.95;;;;;;;;;;10556635;28;20126;-79
2023/03/22 09:39:58;;;;;;;4.65;3.70;;;;;;;;;;10547549;28;20930;-79
2023/03/22 09:45:13;;;;;;;5.70;3.63;;;;;;;;;;10554540;28;20052;-79
2023/03/22 09:50:29;;;;;;;4.50;3.67;;;;;;;;;;10555236;28;20938;-79
2023/03/22 09:55:45;;;;;;;3.83;3.43;;;;;;;;;;10558499;27;20460;-78
2023/03/22 10:00:52;;;;;;;4.45;3.22;;;;;;;;;;10564222;27;20419;-79
2023/03/22 10:06:01;;;;;;;6.00;3.50;;;;;;;;;;10566764;27;20497;-80
2023/03/22 10:11:04;;;;;;;;;;;;;;;;;;10574732;27;20565;-79
2023/03/22 10:16:06;;;;;;;;;;;;;;;;;;10578605;27;19920;-79
2023/03/22 10:21:09;;;;;;;;;;;;;;;;;;10577016;27;19995;-79
2023/03/22 10:26:18;;;;;;;7.13;3.60;;;;;;;;;;10582125;27;19923;-79
2023/03/22 10:31:22;;;;;;;6.40;3.40;;;;;;;;;;10576422;27;20448;-79
2023/03/22 10:36:29;;;;;;;3.45;2.92;;;;;;;;;;10575250;27;20074;-80
2023/03/22 10:41:37;;;;;;;3.87;3.03;;;;;;;;;;10560464;27;20450;-81
2023/03/22 10:46:40;;;;;;;;;;;;;;;;;;10566842;27;20047;-80
2023/03/22 10:51:45;;;;;;;;;;;;;;;;;;10569455;27;19973;-80
2023/03/22 10:56:47;;;;;;;;;;;;;;;;;;10568549;27;19920;-80
2023/03/22 11:01:50;;;;;;;;;;;;;;;;;;10560887;27;20016;-79
2023/03/22 11:06:54;;;;;;;;;;;;;;;;;;10558769;27;19934;-80
2023/03/22 11:12:02;;;;;;;;;;;;;;;;;;10569826;27;20304;-80
2023/03/22 11:17:05;;;;;;;;;;;;;;;;;;10564365;27;19919;-79
2023/03/22 11:22:10;;;;;;;;;;;;;;;;;;10558863;27;19920;-80
2023/03/22 11:27:15;;;;;;;;;;;;;;;;;;10564398;27;20339;-80
2023/03/22 11:32:18;;;;;;;;;;;;;;;;;;10567614;27;19923;-80
2023/03/22 11:37:21;;;;;;;;;;;;;;;;;;10562916;27;19920;-80
2023/03/22 11:42:24;;;;;;;;;;;;;;;;;;10559677;27;19943;-80
2023/03/22 11:47:28;;;;;;;;;;;;;;;;;;10568873;27;20012;-80
2023/03/22 11:52:33;;;;;;;;;;;;;;;;;;10562743;27;19990;-80
2023/03/22 11:57:36;;;;;;;;;;;;;;;;;;10584489;27;19919;-79
2023/03/22 12:02:39;;;;;;;;;;;;;;;;;;10563842;27;20010;-80
2023/03/22 12:07:43;;;;;;;;;;;;;;;;;;10564179;27;19928;-80
2023/03/22 12:12:46;;;;;;;;;;;;;;;;;;10554070;27;20385;-79
2023/03/22 12:17:49;;;;;;;;;;;;;;;;;;10560299;27;19924;-79
2023/03/22 12:22:52;;;;;;;;;;;;;;;;;;10565598;27;20023;-80
2023/03/22 12:27:55;;;;;;;;;;;;;;;;;;10566613;27;20384;-79
2023/03/22 12:32:57;;;;;;;;;;;;;;;;;;10559752;27;20400;-80
2023/03/22 12:38:00;;;;;;;;;;;;;;;;;;10560273;27;19919;-78
2023/03/22 12:43:03;;;;;;;;;;;;;;;;;;10563594;27;19920;-79
2023/03/22 12:48:05;;;;;;;;;;;;;;;;;;10559799;27;19927;-80
2023/03/22 12:53:08;;;;;;;;;;;;;;;;;;10556316;27;20337;-79
2023/03/22 12:58:12;;;;;;;;;;;;;;;;;;10561202;27;19924;-79
2023/03/22 13:03:16;;;;;;;;;;;;;;;;;;10562564;27;19948;-78
2023/03/22 13:08:18;;;;;;;;;;;;;;;;;;10558202;27;19923;-79
2023/03/22 13:13:21;;;;;;;;;;;;;;;;;;10562982;27;19978;-79
2023/03/22 13:18:24;;;;;;;;;;;;;;;;;;10551299;28;19920;-78
2023/03/22 13:23:28;;;;;;;;;;;;;;;;;;10558815;27;20346;-79
2023/03/22 13:28:36;;;;;;;;;;;;;;;;;;10558432;28;19923;-79
2023/03/22 13:33:38;;;;;;;;;;;;;;;;;;10552557;28;19935;-78
2023/03/22 13:38:41;;;;;;;;;;;;;;;;;;10543081;28;19924;-78
2023/03/22 13:43:44;;;;;;;;;;;;;;;;;;10557489;28;20369;-78
2023/03/22 13:48:57;;;;;;;;;;;;;;;;;;10565125;28;20000;-78
2023/03/22 13:54:02;;;;;;;;;;;;;;;;;;10562612;28;19993;-78
2023/03/22 13:59:04;;;;;;;;;;;;;;;;;;10555200;28;19923;-78
2023/03/22 14:04:12;;;;;;;;;;;;;;;;;;10560622;28;19934;-79
2023/03/22 14:09:15;;;;;;;;;;;;;;;;;;10563560;28;19928;-79
2023/03/22 14:14:18;;;;;;;;;;;;;;;;;;10557565;28;20368;-80
2023/03/22 14:19:24;;;;;;;;;;;;;;;;;;10558262;28;20498;-79
2023/03/22 14:24:28;;;;;;;;;;;;;;;;;;10553427;28;20015;-79
2023/03/22 14:29:30;;;;;;;;;;;;;;;;;;10557428;28;19942;-80
2023/03/22 14:34:33;;;;;;;;;;;;;;;;;;10551403;28;19919;-79
2023/03/22 14:39:45;;;;;;;;;;;;;;;;;;10554631;27;19924;-80
2023/03/22 14:44:47;;;;;;;;;;;;;;;;;;10571563;27;19989;-80
2023/03/22 14:49:49;;;;;;;;;;;;;;;;;;10561767;27;19919;-79
2023/03/22 14:54:50;;;;;;;;;;;;;;;;;;10564279;27;19927;-80
2023/03/22 14:59:55;;;;;;;;;;;;;;;;;;10557239;27;19927;-79
2023/03/22 15:04:56;;;;;;;;;;;;;;;;;;10561550;27;19976;-77
2023/03/22 15:09:58;;;;;;;;;;;;;;;;;;10570277;27;19923;-80
2023/03/22 15:15:02;;;;;;;2.10;1.15;;;;;;;;;;10566879;27;19972;-78
2023/03/22 15:20:06;;;;;;;2.22;1.00;;;;;;;;;;10563846;27;20047;-78
2023/03/22 15:25:13;;;;;;;1.98;1.25;;;;;;;;;;10570837;27;20063;-78
2023/03/22 15:30:18;;;;;;;4.90;1.42;;;;;;;;;;10570261;27;20053;-78
2023/03/22 15:35:20;;;;;;;3.42;1.35;;;;;;;;;;10572306;27;20040;-79
2023/03/22 15:40:28;;;;;;;3.47;1.33;;;;;;;;;;10568484;27;20047;-79
2023/03/22 15:45:31;;;;;;;2.17;1.33;;;;;;;;;;10575414;27;20058;-79
2023/03/22 15:50:39;;;;;;;4.47;1.40;;;;;;;;;;10556589;27;20129;-80
2023/03/22 15:55:43;;;;;;;1.95;1.05;;;;;;;;;;10563032;27;20040;-80
2023/03/22 16:00:49;;;;;;;2.28;1.27;;;;;;;;;;10513480;27;20122;-80
2023/03/22 16:05:55;;;;;;;1.55;1.25;;;;;;;;;;10555094;28;20445;-79
2023/03/22 16:10:58;;;;;;;;;;;;;;;;;;10557434;27;20189;-78
2023/03/22 16:16:02;;;;;;;6.07;1.40;;;;;;;;;;10559634;27;20411;-77
2023/03/22 16:21:09;;;;;;;2.35;1.20;;;;;;;;;;10561280;27;20564;-78
2023/03/22 16:26:14;;;;;;;1.90;1.10;;;;;;;;;;10545861;27;20043;-79
2023/03/22 16:31:17;;;;;;;2.33;1.50;;;;;;;;;;10535437;27;20042;-79
2023/03/22 16:36:21;;;;;;;2.20;1.30;;;;;;;;;;10559747;27;20040;-78
2023/03/22 16:41:24;;;;;;;4.63;1.80;;;;;;;;;;10558474;27;20413;-78
2023/03/22 16:46:30;;;;;;;3.55;1.70;;;;;;;;;;10557050;27;20040;-78
2023/03/22 16:51:35;;;;;;;3.72;1.40;;;;;;;;;;10561495;27;20033;-77
2023/03/22 16:56:37;;;;;;;3.08;1.75;;;;;;;;;;10554639;27;20042;-78
2023/03/22 17:01:40;;;;;;;3.25;1.58;;;;;;;;;;10556801;28;20524;-78
2023/03/22 17:06:42;;;;;;;3.40;1.40;;;;;;;;;;10553807;27;20040;-80
2023/03/22 17:11:44;;;;;;;7.65;1.77;;;;;;;;;;10555867;28;20376;-78
2023/03/22 17:16:49;;;;;;;5.38;1.60;;;;;;;;;;10565221;27;20040;-78
2023/03/22 17:21:53;;;;;;;3.35;1.70;;;;;;;;;;10558591;28;20039;-78
2023/03/22 17:26:55;;;;;;;4.63;1.60;;;;;;;;;;10562359;28;20071;-78
2023/03/22 17:31:59;;;;;;;4.45;1.67;;;;;;;;;;10545881;28;20036;-78
2023/03/22 17:37:02;;;;;;;7.18;1.90;;;;;;;;;;10557599;28;20369;-78
2023/03/22 17:42:04;;;;;;;5.32;1.90;;;;;;;;;;10555700;28;20036;-78
2023/03/22 17:47:07;;;;;;;3.83;1.13;;;;;;;;;;10555563;28;20048;-78
2023/03/22 17:52:13;;;;;;;5.63;1.90;;;;;;;;;;10560281;28;20028;-78
2023/03/22 17:57:15;;;;;;;7.55;2.35;;;;;;;;;;10557861;28;20114;-77
2023/03/22 18:02:19;;;;;;;6.45;1.90;;;;;;;;;;10537283;28;20404;-78
2023/03/22 18:07:26;;;;;;;6.50;1.90;;;;;;;;;;10564221;28;20039;-78
2023/03/22 18:12:29;;;;;;;7.30;2.28;;;;;;;;;;10570076;28;20104;-78
2023/03/22 18:17:35;;;;;;;2.63;1.65;;;;;;;;;;10553508;28;20480;-78
2023/03/22 18:22:38;;;;;;;4.13;1.73;;;;;;;;;;10584283;27;20062;-78
2023/03/22 18:27:40;;;;;;;7.70;1.60;;;;;;;;;;10559911;28;20065;-77
2023/03/22 18:32:47;;;;;;;5.07;2.25;;;;;;;;;;10554349;28;20107;-78
2023/03/22 18:37:49;;;;;;;5.45;2.05;;;;;;;;;;10556232;28;20310;-78
2023/03/22 18:42:51;;;;;;;3.92;1.90;;;;;;;;;;10568243;28;20035;-79
2023/03/22 18:47:54;;;;;;;5.03;2.30;;;;;;;;;;10564335;27;20641;-78
2023/03/22 18:52:56;;;;;;;6.07;3.00;;;;;;;;;;10562259;27;20031;-78
2023/03/22 18:58:07;;;;;;;2.80;2.00;;;;;;;;;;10549847;27;20043;-78
2023/03/22 19:03:11;;;;;;;3.72;2.08;;;;;;;;;;10542418;27;20514;-78
2023/03/22 19:08:13;;;;;;;7.83;3.83;;;;;;;;;;10560347;27;20048;-78
2023/03/22 19:13:16;;;;;;;11.47;3.13;;;;;;;;;;10560871;27;20042;-78
2023/03/22 19:18:25;;;;;;;9.05;3.08;;;;;;;;;;10563600;27;20986;-78
2023/03/22 19:23:27;;;;;;;10.68;5.10;;;;;;;;;;10566300;27;20048;-77
2023/03/22 19:28:29;;;;;;;12.50;4.28;;;;;;;;;;10563214;28;20057;-78
2023/03/22 19:33:33;;;;;;;8.23;3.75;;;;;;;;;;10563809;28;20032;-78
2023/03/22 19:38:35;;;;;;;7.75;2.75;;;;;;;;;;10556703;28;20123;-77
2023/03/22 19:43:39;;;;;;;8.52;3.10;;;;;;;;;;10568113;28;20040;-77
2023/03/22 19:48:42;;;;;;;3.75;1.70;;;;;;;;;;10550758;28;20102;-77
2023/03/22 19:53:45;;;;;;;7.95;3.13;;;;;;;;;;10537700;28;20054;-78
2023/03/22 19:58:46;;;;;;;7.43;2.88;;;;;;;;;;10545845;28;20040;-78
2023/03/22 20:03:50;;;;;;;8.93;3.47;;;;;;;;;;10562615;28;20087;-78
2023/03/22 20:08:52;;;;;;;10.13;3.17;;;;;;;;;;10556697;28;20427;-77
2023/03/22 20:13:54;;;;;;;11.70;3.25;;;;;;;;;;10563598;28;20107;-77
2023/03/22 20:19:07;;;;;;;8.27;3.42;;;;;;;;;;10560113;28;20068;-76
2023/03/22 20:24:19;;;;;;;7.37;3.20;;;;;;;;;;10555104;28;20036;-77
2023/03/22 20:29:21;;;;;;;6.97;2.83;;;;;;;;;;10545678;28;20063;-77
2023/03/22 20:34:25;;;;;;;7.55;3.63;;;;;;;;;;10556994;28;20371;-78
2023/03/22 20:39:27;;;;;;;5.90;3.35;;;;;;;;;;10564623;28;20043;-78
2023/03/22 20:44:30;;;;;;;8.27;3.10;;;;;;;;;;10572622;28;20052;-76
2023/03/22 20:49:36;;;;;;;3.97;2.00;;;;;;;;;;10550734;28;20040;-79
2023/03/22 20:54:39;;;;;;;6.82;3.78;;;;;;;;;;10562181;28;20554;-79
2023/03/22 20:59:41;;;;;;;10.95;2.90;;;;;;;;;;10567368;28;20044;-77
2023/03/22 21:04:54;;;;;;;7.40;3.47;;;;;;;;;;10565907;28;20032;-76
2023/03/22 21:09:56;;;;;;;3.95;1.88;;;;;;;;;;10556522;28;20115;-77
2023/03/22 21:14:59;;;;;;;6.50;2.90;;;;;;;;;;10553735;28;20507;-78
2023/03/22 21:20:03;;;;;;;7.65;3.47;;;;;;;;;;10557777;28;20040;-77
2023/03/22 21:25:06;;;;;;;13.18;5.40;;;;;;;;;;10560057;28;20526;-77
2023/03/22 21:30:09;;;;;;;6.45;3.97;;;;;;;;;;10538728;28;20138;-78
2023/03/22 21:35:13;;;;;;;7.32;3.88;;;;;;;;;;10556569;28;20028;-79
2023/03/22 21:40:20;;;;;;;5.93;2.80;;;;;;;;;;10561818;28;20039;-79
2023/03/22 21:45:34;;;;;;;6.13;3.05;;;;;;;;;;10539856;28;20027;-78
2023/03/22 21:50:47;;;;;;;6.75;2.88;;;;;;;;;;10541839;27;20047;-78
2023/03/22 21:55:49;;;;;;;;;;;;;;;;;;10544539;27;20128;-77
2023/03/22 22:00:52;;;;;;;7.05;3.15;;;;;;;;;;10546440;27;19971;-81
2023/03/22 22:05:56;;;;;;;5.05;2.38;;;;;;;;;;10563569;27;20132;-80
2023/03/22 22:10:59;;;;;;;7.32;2.65;;;;;;;;;;10537136;27;20043;-77
2023/03/22 22:16:02;;;;;;;7.32;2.30;;;;;;;;;;10546261;27;20473;-79
2023/03/22 22:21:10;;;;;;;4.93;1.83;;;;;;;;;;10545250;27;20505;-77
2023/03/22 22:26:22;;;;;;;4.72;1.70;;;;;;;;;;10541603;27;20035;-78
2023/03/22 22:31:25;;;;;;;5.40;2.72;;;;;;;;;;10539122;28;20044;-76
2023/03/22 22:36:30;;;;;;;4.13;2.20;;;;;;;;;;10569007;27;20482;-77
2023/03/22 22:41:32;;;;;;;5.53;3.72;;;;;;;;;;10523397;27;20040;-79
2023/03/22 22:46:34;;;;;;;4.32;1.77;;;;;;;;;;10529415;27;20119;-76
2023/03/22 22:51:39;;;;;;;6.68;2.90;;;;;;;;;;10528303;27;20044;-76
2023/03/22 22:56:40;;;;;;;;;;;;;;;;;;10558042;27;20144;-77
2023/03/22 23:01:42;;;;;;;10.07;3.47;;;;;;;;;;10551272;27;20277;-78
2023/03/22 23:06:50;;;;;;;4.72;2.50;;;;;;;;;;10545193;27;20496;-78
2023/03/22 23:11:54;;;;;;;6.75;2.67;;;;;;;;;;10542566;27;20468;-78
2023/03/22 23:16:57;;;;;;;5.90;2.67;;;;;;;;;;10522180;27;20074;-78
2023/03/22 23:22:02;;;;;;;3.72;1.67;;;;;;;;;;10557950;27;20104;-78
2023/03/22 23:27:03;;;;;;;3.33;2.22;;;;;;;;;;10542133;27;20036;-78
2023/03/22 23:32:06;;;;;;;5.78;2.88;;;;;;;;;;10525866;27;20052;-78
2023/03/22 23:37:22;;;;;;;5.47;3.03;;;;;;;;;;10512091;27;20042;-78
2023/03/22 23:42:25;;;;;;;6.90;2.60;;;;;;;;;;10546234;27;20036;-77
2023/03/22 23:47:28;;;;;;;5.95;2.08;;;;;;;;;;10527630;27;20612;-75
2023/03/22 23:52:31;;;;;;;5.72;2.60;;;;;;;;;;10519707;27;20527;-78
2023/03/22 23:57:33;;;;;;;6.32;2.50;;;;;;;;;;10533285;27;20036;-79
